CMA CGM Musca — 2CAC8 — position and weather

sailwx.info

Track history (hours):
 
Tides and Currents Weather Stations Pressure Air Temp Water Temp Dewpoint Dewpoint Depression Visibility Wind Speed Wind Dir Waves Ship Positions

CMA CGM Musca

Last reported at 2016-Aug-31 01:04 UTC. Time now 2016-Sep-01 01:57 UTC.
Position N 33°56' E 035°01'.

Length 347 m; draft 13.7 m.

Type: Ship (hazmat cat A). MMSI: 235070914.

Date/timePositionNaut miles runAvg speedWind from/ knotsBaromVisibWave heightAir tempDewpointWater temp
2016-Aug-31 01:04N 33°56' E 035°01'711.6
2016-Aug-31 00:26N 33°56' E 035°10'16 0.5
2016-Aug-29 14:32N 33°56' E 035°29'  
2016-Aug-26 18:17N 31°28' E 031°46'0 0.0
2016-Aug-26 17:32N 31°28' E 031°46'0 0.0
2016-Aug-26 16:23N 31°28' E 031°46'1 0.7
2016-Aug-26 15:33N 31°28' E 031°45'8 5.7
2016-Aug-26 14:11N 31°36' E 031°47'18 6.8
2016-Aug-26 11:33N 31°48' E 031°31'10411.2
2016-Aug-26 02:15N 32°20' E 029°35'912.3
2016-Aug-26 01:33N 32°23' E 029°25'1211.8
2016-Aug-26 00:34N 32°25' E 029°11'1711.6
2016-Aug-25 23:07N 32°27' E 028°52'4910.1
2016-Aug-25 18:16N 32°41' E 027°56'2 1.0
2016-Aug-25 16:04N 32°43' E 027°55'1 1.3
2016-Aug-25 15:22N 32°43' E 027°54'50 9.7
2016-Aug-25 10:11N 32°57' E 026°56'62113.3
2016-Aug-23 11:31N 35°44' E 014°52'1313.2
2016-Aug-23 10:33N 35°47' E 014°37'5 0.4
2016-Aug-22 23:25N 35°49' E 014°32'0 0.0
2016-Aug-22 18:32N 35°49' E 014°32'0 0.0
2016-Aug-22 17:32N 35°49' E 014°32'0 0.0
2016-Aug-22 16:31N 35°49' E 014°32'0 0.0
2016-Aug-22 15:15N 35°49' E 014°32'1 1.5
2016-Aug-22 14:33N 35°49' E 014°33'3 2.9
2016-Aug-22 13:34N 35°46' E 014°33'3 2.8
2016-Aug-22 12:33N 35°44' E 014°31'4 3.6
2016-Aug-22 11:24N 35°44' E 014°26'1416.0
2016-Aug-22 10:33N 35°51' E 014°12'1716.6
2016-Aug-22 09:33N 36°00' E 013°55'1717.3
2016-Aug-22 08:33N 36°10' E 013°36'1717.4
2016-Aug-22 07:33N 36°19' E 013°18'1817.5
2016-Aug-22 06:33N 36°29' E 013°00'1717.3
2016-Aug-22 05:33N 36°38' E 012°42'1717.1
2016-Aug-22 04:33N 36°47' E 012°24'1818.0
2016-Aug-22 03:33N 36°58' E 012°06'2318.5
2016-Aug-22 02:17N 37°10' E 011°41'1418.4
2016-Aug-22 01:33N 37°16' E 011°25'2118.1
2016-Aug-22 00:23N 37°26' E 011°02'1517.9
2016-Aug-21 23:33N 37°34' E 010°46'36817.5
2016-Aug-21 02:28N 42°18' E 005°41'  
Track history (hours):
 
Tides and Currents Weather Stations Pressure Air Temp Water Temp Dewpoint Dewpoint Depression Visibility Wind Speed Wind Dir Waves Ship Positions

CMA CGM Musca

Last reported at 2016-Aug-31 01:04 UTC. Time now 2016-Sep-01 01:57 UTC.
Position N 33°56' E 035°01'.

Length 347 m; draft 13.7 m.

Type: Ship (hazmat cat A). MMSI: 235070914.

Date/timePositionNaut miles runAvg speedWind from/ knotsBaromVisibWave heightAir tempDewpointWater temp
2016-Aug-31 01:04N 33°56' E 035°01'711.6
2016-Aug-31 00:26N 33°56' E 035°10'16 0.5
2016-Aug-29 14:32N 33°56' E 035°29'  
2016-Aug-26 18:17N 31°28' E 031°46'0 0.0
2016-Aug-26 17:32N 31°28' E 031°46'0 0.0
2016-Aug-26 16:23N 31°28' E 031°46'1 0.7
2016-Aug-26 15:33N 31°28' E 031°45'8 5.7
2016-Aug-26 14:11N 31°36' E 031°47'18 6.8
2016-Aug-26 11:33N 31°48' E 031°31'10411.2
2016-Aug-26 02:15N 32°20' E 029°35'912.3
2016-Aug-26 01:33N 32°23' E 029°25'1211.8
2016-Aug-26 00:34N 32°25' E 029°11'1711.6
2016-Aug-25 23:07N 32°27' E 028°52'4910.1
2016-Aug-25 18:16N 32°41' E 027°56'2 1.0
2016-Aug-25 16:04N 32°43' E 027°55'1 1.3
2016-Aug-25 15:22N 32°43' E 027°54'50 9.7
2016-Aug-25 10:11N 32°57' E 026°56'62113.3
2016-Aug-23 11:31N 35°44' E 014°52'1313.2
2016-Aug-23 10:33N 35°47' E 014°37'5 0.4
2016-Aug-22 23:25N 35°49' E 014°32'0 0.0
2016-Aug-22 18:32N 35°49' E 014°32'0 0.0
2016-Aug-22 17:32N 35°49' E 014°32'0 0.0
2016-Aug-22 16:31N 35°49' E 014°32'0 0.0
2016-Aug-22 15:15N 35°49' E 014°32'1 1.5
2016-Aug-22 14:33N 35°49' E 014°33'3 2.9
2016-Aug-22 13:34N 35°46' E 014°33'3 2.8
2016-Aug-22 12:33N 35°44' E 014°31'4 3.6
2016-Aug-22 11:24N 35°44' E 014°26'1416.0
2016-Aug-22 10:33N 35°51' E 014°12'1716.6
2016-Aug-22 09:33N 36°00' E 013°55'1717.3
2016-Aug-22 08:33N 36°10' E 013°36'1717.4
2016-Aug-22 07:33N 36°19' E 013°18'1817.5
2016-Aug-22 06:33N 36°29' E 013°00'1717.3
2016-Aug-22 05:33N 36°38' E 012°42'1717.1
2016-Aug-22 04:33N 36°47' E 012°24'1818.0
2016-Aug-22 03:33N 36°58' E 012°06'2318.5
2016-Aug-22 02:17N 37°10' E 011°41'1418.4
2016-Aug-22 01:33N 37°16' E 011°25'2118.1
2016-Aug-22 00:23N 37°26' E 011°02'1517.9
2016-Aug-21 23:33N 37°34' E 010°46'36817.5
2016-Aug-21 02:28N 42°18' E 005°41'  

Dump ship's entire track history